Impacts METAR Board INFO
IDs:

KLAX - Los Angeles Intl, CA, US

Updated at: 1050 UTC 18 Dec 2017
Potential Impact None Slight Moderate High
Time17/22Z 17/23Z 18/00Z 18/01Z 18/02Z 18/03Z 18/04Z 18/05Z 18/06Z 18/07Z 18/08Z 18/09Z 18/10Z
VIS10 10 10 10 10 10 10 10 10 10 10 10
CIG-- -- -- -- -- -- -- -- -- -- -- --
CoverFEWFEWFEWFEWFEWFEWFEWCLRCLRCLRCLRCLR
FltCatVFRVFRVFRVFRVFRVFRVFRVFRVFRVFRVFRVFR
WX------------------------
WDir034003400360403503500340360
WSpd4 11 4 4 0 6 6 7 5 0 7 4
WGst-- -- -- -- -- -- -- -- -- -- -- --
Raw hourly METARs
KLAX 172153Z VRB04KT 10SM FEW250 22/M05 A2990 RMK AO2 SLP125 T02221050
KLAX 172253Z 34011KT 10SM FEW200 22/M06 A2992 RMK AO2 SLP131 T02221061
KLAX 172353Z VRB04KT 10SM FEW200 22/M06 A2992 RMK AO2 SLP132 T02221056 10233 20189 52008
KLAX 180053Z 34004KT 10SM FEW200 22/M06 A2995 RMK AO2 SLP141 T02171056
KLAX 180153Z 00000KT 10SM FEW200 19/M06 A2997 RMK AO2 SLP148 T01891056
KLAX 180253Z 36006KT 10SM FEW200 18/M06 A3000 RMK AO2 SLP156 T01781056 51023
KLAX 180353Z 04006KT 10SM FEW200 17/M06 A3001 RMK AO2 SLP161 T01721056
KLAX 180453Z 35007KT 10SM CLR 17/M06 A3003 RMK AO2 SLP168 T01721061
KLAX 180553Z 35005KT 10SM CLR 17/M07 A3004 RMK AO2 SLP171 T01671067 10222 20167 51015
KLAX 180653Z 00000KT 10SM CLR 16/M07 A3007 RMK AO2 SLP179 T01611067
KLAX 180753Z 34007KT 10SM CLR 16/M05 A3006 RMK AO2 SLP178 T01561050 402330133
KLAX 180853Z 36004KT 10SM CLR 15/M06 A3007 RMK AO2 SLP181 T01501061 51010